Thursday, January 18, 2018, 8:45 PM EST
Back to Local

KCXY, Harrisburg Capital City

Location: New Cumberland, PA, United States Lat: 40.217
Local Time: 8:45 PM EST ( 1:45 GMT) Lon: -76.85
Time Zone: US/Eastern Elev: 347 ft

Show me the last for .
Show Coded

Time T Td Feel RH Dir Speed Gust Alt SLP Vis Weather Sky Remarks
2018-01-18 19:56 32 14 26 46 310° 6 - 30.07 30.09 10 CLR None
2018-01-18 18:56 32 14 29 46 300° 3 - 30.06 30.07 10 CLR 6-hr Min Temp (7pm): 32.0°F
6-hr Max Temp (7pm): 39.0°F
2018-01-18 17:56 34 13 28 41 310° 7 - 30.04 30.06 10 CLR None
2018-01-18 16:56 36 13 28 38 320° 13 - 30.02 30.04 10 CLR None
2018-01-18 15:56 38 12 27 33 300° 15 23 30.00 30.02 10 CLR None
2018-01-18 14:56 38 11 32 32 280° 8 - 29.99 30.01 10 CLR None
2018-01-18 13:56 35 11 27 36 260° 12 - 30.01 30.03 10 CLR None
2018-01-18 12:56 34 10 25 36 260° 13 - 30.04 30.06 10 CLR 6-hr Min Temp (1pm): 15.1°F
6-hr Max Temp (1pm): 34.0°F
2018-01-18 11:56 32 8 20 35 270° 12 18 30.07 30.09 10 CLR None
2018-01-18 10:56 30 8 21 38 280° 10 - 30.11 30.13 10 CLR None
2018-01-18 09:56 26 7 18 43 260° 8 - 30.12 30.14 10 CLR None
2018-01-18 08:56 20 5 10 51 250° 8 - 30.12 30.14 10 CLR None
2018-01-18 07:56 18 5 9 56 250° 7 - 30.13 30.15 10 CLR None
2018-01-18 06:56 16 4 5 58 250° 8 - 30.13 30.15 10 CLR 6-hr Min Temp (7am): 10.9°F
6-hr Max Temp (7am): 18.0°F
2018-01-18 05:56 15 4 4 60 270° 8 - 30.12 30.14 10 CLR None
2018-01-18 04:56 14 5 2 66 280° 9 - 30.12 30.14 10 CLR None
2018-01-18 03:56 11 5 0 76 270° 7 - 30.15 30.17 10 CLR Pressure falling rapidly
2018-01-18 02:56 12 5 2 72 260° 7 - 30.20 30.22 10 CLR None
2018-01-18 01:56 13 5 2 69 270° 8 - 30.21 30.24 10 CLR None
2018-01-18 00:56 14 5 2 66 260° 9 - 30.23 30.25 10 CLR 6-hr Min Temp (1am): 12.9°F
6-hr Max Temp (1am): 19.0°F
2018-01-17 23:56 14 5 1 66 260° 10 - 30.25 30.27 10 CLR 24-hr Min Temp (12am): 14.0°F
24-hr Max Temp (12am): 32.0°F
2018-01-17 22:56 15 6 5 66 260° 7 - 30.27 30.29 10 CLR None
2018-01-17 21:56 17 6 7 61 280° 8 - 30.28 30.30 10 CLR None
2018-01-17 20:56 19 7 5 58 290° 15 - 30.29 30.31 10 CLR None

Support USWX by starting your Amazon purchase here.